Time;durP1;ratioP1;P1;durP2;ratioP2;P2;SDS_P1;SDS_P2;PMS_P1;PMS_P2;Temp;Humidity;BMP_temperature;BMP_pressure;BME280_temperature;BME280_humidity;BME280_pressure;Samples;Min_cycle;Max_cycle;Signal;HPM_P1;HPM_P2
2023/04/18 00:00:39;;;;;;;12.80;9.60;;;;;;;10.14;81.42;100912.04;131125;1254;108114;-75
2023/04/18 00:03:53;;;;;;;15.30;9.40;;;;;;;10.11;81.64;100911.78;131322;1252;107495;-75
2023/04/18 00:06:59;;;;;;;15.60;10.40;;;;;;;10.04;81.77;100910.54;131189;1254;107384;-75
2023/04/18 00:10:07;;;;;;;16.60;9.80;;;;;;;9.98;82.02;100909.48;131441;1259;107340;-75
2023/04/18 00:13:12;;;;;;;14.60;9.20;;;;;;;9.93;82.16;100911.50;131186;1254;106514;-75
2023/04/18 00:16:18;;;;;;;13.70;10.10;;;;;;;9.93;81.99;100911.87;131388;1254;107589;-76
2023/04/18 00:19:23;;;;;;;15.70;10.60;;;;;;;9.96;82.24;100911.27;131299;1251;106029;-77
2023/04/18 00:22:28;;;;;;;15.00;10.60;;;;;;;9.97;82.28;100910.33;131251;1251;107612;-77
2023/04/18 00:25:34;;;;;;;14.80;10.60;;;;;;;9.96;82.11;100907.34;131186;1254;107819;-76
2023/04/18 00:28:39;;;;;;;16.20;10.50;;;;;;;9.95;82.53;100915.80;131424;1254;105889;-77
2023/04/18 00:31:45;;;;;;;16.10;10.50;;;;;;;9.90;82.40;100919.40;131158;1252;109308;-76
2023/04/18 00:34:50;;;;;;;14.10;9.60;;;;;;;9.88;82.04;100915.88;131381;1253;105710;-76
2023/04/18 00:37:58;;;;;;;15.80;11.50;;;;;;;9.89;82.45;100918.84;131226;1254;107365;-76
2023/04/18 00:41:03;;;;;;;15.70;11.50;;;;;;;9.89;82.88;100914.40;131306;1254;107494;-76
2023/04/18 00:44:08;;;;;;;18.40;11.50;;;;;;;9.89;82.37;100917.40;131384;1249;106648;-76
2023/04/18 00:47:16;;;;;;;17.70;12.80;;;;;;;9.91;82.44;100914.36;131194;1251;107394;-76
2023/04/18 00:50:22;;;;;;;18.50;13.10;;;;;;;9.92;82.84;100913.41;131506;1254;107553;-74
2023/04/18 00:53:28;;;;;;;20.40;11.80;;;;;;;9.90;82.80;100917.46;131445;1251;106542;-77
2023/04/18 00:56:35;;;;;;;18.40;11.60;;;;;;;9.87;82.83;100919.16;131216;1254;107465;-75
2023/04/18 00:59:41;;;;;;;19.80;12.60;;;;;;;9.86;82.80;100910.93;131205;1253;108073;-77
2023/04/18 01:02:48;;;;;;;17.40;12.30;;;;;;;9.88;82.73;100908.95;131058;1255;105704;-75
2023/04/18 01:05:56;;;;;;;20.50;13.70;;;;;;;9.91;83.16;100908.20;130993;1250;107232;-76
2023/04/18 01:09:04;;;;;;;21.20;14.40;;;;;;;9.90;83.31;100915.89;131022;1250;106446;-76
2023/04/18 01:12:09;;;;;;;20.10;14.20;;;;;;;9.87;83.26;100912.56;131065;1251;107378;-76
2023/04/18 01:15:15;;;;;;;16.70;11.60;;;;;;;9.80;83.28;100917.45;131032;1255;109687;-76
2023/04/18 01:18:21;;;;;;;18.70;11.20;;;;;;;9.78;83.07;100918.71;131140;1250;106637;-76
2023/04/18 01:21:29;;;;;;;20.80;12.40;;;;;;;9.77;83.22;100918.71;131032;1251;107387;-76
2023/04/18 01:24:35;;;;;;;19.40;12.80;;;;;;;9.80;83.24;100915.42;131060;1250;107333;-76
2023/04/18 01:27:41;;;;;;;18.50;12.70;;;;;;;9.84;83.23;100916.75;131120;1254;107658;-76
2023/04/18 01:30:46;;;;;;;21.30;14.50;;;;;;;9.82;83.32;100914.79;131011;1251;107558;-77
2023/04/18 01:33:52;;;;;;;20.90;15.00;;;;;;;9.76;83.57;100915.34;131051;1255;107448;-77
2023/04/18 01:36:58;;;;;;;22.10;13.60;;;;;;;9.65;83.47;100916.92;130965;1256;107537;-76
2023/04/18 01:40:04;;;;;;;19.10;12.20;;;;;;;9.63;83.75;100910.69;131021;1254;105765;-76
2023/04/18 01:43:10;;;;;;;21.80;14.10;;;;;;;9.64;83.66;100915.06;131176;1254;107506;-76
2023/04/18 01:46:16;;;;;;;22.00;14.80;;;;;;;9.65;83.64;100917.49;131264;1254;107486;-77
2023/04/18 01:49:22;;;;;;;23.30;15.20;;;;;;;9.65;83.87;100915.89;131068;1250;107225;-76
2023/04/18 01:52:28;;;;;;;21.50;14.80;;;;;;;9.64;83.96;100915.26;131065;1256;107647;-77
2023/04/18 01:55:33;;;;;;;23.50;15.10;;;;;;;9.62;84.21;100920.24;130996;1250;109352;-77
2023/04/18 01:58:40;;;;;;;19.60;12.50;;;;;;;9.58;84.04;100918.79;130953;1264;107243;-77
2023/04/18 02:01:45;;;;;;;24.40;14.70;;;;;;;9.59;83.88;100915.86;131087;1249;108883;-76
2023/04/18 02:04:51;;;;;;;21.80;15.70;;;;;;;9.57;84.78;100917.83;131416;1254;107507;-76
2023/04/18 02:07:56;;;;;;;22.90;15.30;;;;;;;9.51;84.00;100916.88;131443;1253;106137;-76
2023/04/18 02:11:02;;;;;;;24.00;15.30;;;;;;;9.54;84.20;100915.04;131125;1254;107679;-76
2023/04/18 02:14:07;;;;;;;22.10;15.50;;;;;;;9.54;84.56;100920.51;130989;1253;108492;-75
2023/04/18 02:17:13;;;;;;;25.60;15.10;;;;;;;9.51;84.59;100919.55;130988;1256;107429;-75
2023/04/18 02:20:18;;;;;;;22.10;13.20;;;;;;;9.47;84.37;100917.02;131100;1253;107510;-75
2023/04/18 02:23:24;;;;;;;25.40;17.10;;;;;;;9.49;84.56;100915.45;131165;1253;107641;-75
2023/04/18 02:26:29;;;;;;;23.80;15.80;;;;;;;9.50;84.60;100916.46;131079;1252;107511;-75
2023/04/18 02:29:36;;;;;;;25.50;17.30;;;;;;;9.51;84.28;100915.69;131079;1253;107476;-76
2023/04/18 02:32:42;;;;;;;27.10;17.40;;;;;;;9.50;84.49;100913.76;131225;1253;107450;-76
2023/04/18 02:35:48;;;;;;;21.80;14.70;;;;;;;9.49;84.44;100914.38;131149;1250;108581;-76
2023/04/18 02:38:55;;;;;;;19.60;12.90;;;;;;;9.47;84.49;100913.73;131088;1253;107528;-75
2023/04/18 02:42:00;;;;;;;25.50;16.10;;;;;;;9.48;84.65;100912.41;131108;1251;107378;-74
2023/04/18 02:45:07;;;;;;;22.70;15.30;;;;;;;9.49;84.66;100909.99;131433;1254;107521;-72
2023/04/18 02:48:13;;;;;;;24.30;16.80;;;;;;;9.49;84.62;100911.02;131395;1253;107364;-73
2023/04/18 02:51:19;;;;;;;23.20;16.40;;;;;;;9.49;84.59;100914.59;131464;1250;107606;-74
2023/04/18 02:54:25;;;;;;;24.20;17.40;;;;;;;9.44;84.51;100913.34;133373;1250;107265;-74
2023/04/18 02:57:57;;;;;;;24.90;15.20;;;;;;;9.41;84.80;100916.13;131050;1253;106804;-73
2023/04/18 03:01:35;;;;;;;19.80;13.10;;;;;;;9.39;84.63;100916.79;131160;1253;107409;-73
2023/04/18 03:04:50;;;;;;;22.50;15.70;;;;;;;9.47;84.78;100917.61;131221;1250;107407;-75
2023/04/18 03:07:56;;;;;;;22.50;16.10;;;;;;;9.49;84.71;100915.83;131056;1253;107505;-74
2023/04/18 03:11:01;;;;;;;20.70;14.70;;;;;;;9.51;84.76;100919.04;131111;1253;107229;-75
2023/04/18 03:14:08;;;;;;;24.60;16.30;;;;;;;9.49;84.87;100918.27;131130;1253;107365;-74
2023/04/18 03:17:20;;;;;;;;;;;;;;;9.46;84.63;100920.70;131446;1253;107446;-75
2023/04/18 03:20:27;;;;;;;23.40;16.30;;;;;;;9.43;84.61;100917.70;131238;1250;107453;-74
2023/04/18 03:23:32;;;;;;;20.40;13.90;;;;;;;9.41;84.57;100920.52;131162;1253;107978;-74
2023/04/18 03:26:40;;;;;;;20.50;13.40;;;;;;;9.41;84.83;100921.42;130976;1254;107371;-74
2023/04/18 03:29:46;;;;;;;21.40;15.00;;;;;;;9.41;84.89;100922.55;131026;1251;107396;-75
2023/04/18 03:32:52;;;;;;;22.50;15.70;;;;;;;9.43;84.76;100921.64;131077;1254;107394;-74
2023/04/18 03:35:58;;;;;;;22.30;15.90;;;;;;;9.46;84.77;100925.67;131135;1253;107479;-73
2023/04/18 03:39:05;;;;;;;24.60;17.20;;;;;;;9.48;84.96;100925.20;131351;1253;107424;-73
2023/04/18 03:42:10;;;;;;;24.30;17.30;;;;;;;9.46;85.09;100921.21;131207;1253;107545;-73
2023/04/18 03:45:19;;;;;;;21.30;14.70;;;;;;;9.41;84.92;100923.05;131415;1253;107418;-72
2023/04/18 03:48:25;;;;;;;21.70;13.80;;;;;;;9.36;84.97;100925.06;131157;1251;107495;-74
2023/04/18 03:51:41;;;;;;;22.20;15.80;;;;;;;9.35;85.11;100925.51;131121;1251;107371;-73
2023/04/18 03:54:46;;;;;;;22.30;15.90;;;;;;;9.36;85.19;100933.39;131100;1253;107521;-72
2023/04/18 03:57:53;;;;;;;23.70;16.60;;;;;;;9.37;85.26;100930.63;131488;1251;107347;-73
2023/04/18 04:01:05;;;;;;;25.80;17.20;;;;;;;9.37;85.36;100930.84;131226;1251;107431;-73
2023/04/18 04:04:13;;;;;;;23.80;14.80;;;;;;;9.35;85.34;100930.47;131209;1253;107447;-74
2023/04/18 04:07:19;;;;;;;21.60;13.50;;;;;;;9.33;85.51;100933.30;131080;1252;107441;-74
2023/04/18 04:10:25;;;;;;;27.10;16.70;;;;;;;9.33;85.16;100936.84;131095;1251;107329;-75
2023/04/18 04:13:31;;;;;;;24.60;16.70;;;;;;;9.39;85.14;100933.89;131011;1253;107459;-75
2023/04/18 04:16:37;;;;;;;23.50;16.40;;;;;;;9.45;85.15;100938.56;131079;1254;107520;-75
2023/04/18 04:19:43;;;;;;;24.70;17.60;;;;;;;9.44;85.02;100945.70;131174;1253;107406;-74
2023/04/18 04:22:54;;;;;;;26.40;18.10;;;;;;;9.41;85.40;100950.56;131095;1253;108601;-74
2023/04/18 04:26:03;;;;;;;23.80;15.60;;;;;;;9.36;85.35;100943.54;131281;1253;107502;-74
2023/04/18 04:29:17;;;;;;;22.90;15.00;;;;;;;9.40;85.53;100951.91;131254;1253;107357;-73
2023/04/18 04:32:26;;;;;;;26.20;16.60;;;;;;;9.41;85.37;100955.69;131233;1253;107454;-76
2023/04/18 04:35:33;;;;;;;26.70;18.20;;;;;;;9.43;85.31;100958.41;131244;1256;108264;-72
2023/04/18 04:38:39;;;;;;;29.60;19.60;;;;;;;9.46;85.54;100960.11;131355;1250;107594;-72
2023/04/18 04:41:46;;;;;;;28.60;19.00;;;;;;;9.47;85.53;100962.39;131355;1253;107449;-71
2023/04/18 04:44:53;;;;;;;29.10;19.00;;;;;;;9.45;85.71;100960.90;131119;1251;107449;-72
2023/04/18 04:48:00;;;;;;;25.50;16.90;;;;;;;9.42;85.74;100958.33;131300;1253;107384;-72
2023/04/18 04:51:06;;;;;;;21.80;14.30;;;;;;;9.39;85.79;100961.95;131248;1253;107357;-73
2023/04/18 04:54:11;;;;;;;28.90;18.40;;;;;;;9.46;85.62;100964.92;131117;1253;107513;-71
2023/04/18 04:57:17;;;;;;;27.40;18.30;;;;;;;9.52;85.73;100966.15;131264;1253;107950;-72
2023/04/18 05:00:23;;;;;;;27.60;18.50;;;;;;;9.57;85.50;100963.79;131137;1251;107454;-72
2023/04/18 05:03:29;;;;;;;27.10;18.00;;;;;;;9.63;85.60;100967.76;131333;1251;107468;-73
2023/04/18 05:06:36;;;;;;;28.70;18.90;;;;;;;9.64;85.45;100966.60;131411;1253;107514;-73
2023/04/18 05:09:42;;;;;;;23.70;15.60;;;;;;;9.65;86.03;100970.05;131562;1251;108127;-73
2023/04/18 05:12:47;;;;;;;23.20;14.80;;;;;;;9.64;85.76;100972.47;131410;1253;107539;-72
2023/04/18 05:15:53;;;;;;;25.30;17.50;;;;;;;9.63;85.79;100978.02;131425;1248;107491;-73
2023/04/18 05:18:58;;;;;;;32.40;20.20;;;;;;;9.69;86.17;100973.31;131552;1250;107223;-73
2023/04/18 05:22:04;;;;;;;30.30;20.80;;;;;;;9.73;86.05;100971.14;131174;1251;108959;-73
2023/04/18 05:25:11;;;;;;;37.30;23.70;;;;;;;9.75;85.77;100974.00;131557;1252;107512;-74
2023/04/18 05:28:18;;;;;;;33.80;21.70;;;;;;;9.75;85.86;100974.55;131548;1252;107526;-74
2023/04/18 05:31:24;;;;;;;29.70;17.60;;;;;;;9.75;85.93;100975.79;131128;1254;107333;-74
2023/04/18 05:34:30;;;;;;;26.40;17.50;;;;;;;9.75;86.08;100980.81;131315;1250;107515;-74
2023/04/18 05:37:36;;;;;;;27.30;19.00;;;;;;;9.77;85.89;100979.56;131273;1253;108085;-73
2023/04/18 05:40:42;;;;;;;31.00;20.50;;;;;;;9.83;85.72;100981.65;131405;1253;107580;-74
2023/04/18 05:43:47;;;;;;;30.60;20.10;;;;;;;9.88;85.91;100983.64;131545;1250;107587;-74
2023/04/18 05:46:52;;;;;;;34.50;21.30;;;;;;;9.87;85.83;100983.66;131522;1251;107498;-74
2023/04/18 05:49:58;;;;;;;31.30;22.10;;;;;;;9.86;85.75;100982.48;131411;1253;107540;-74
2023/04/18 05:53:03;;;;;;;28.10;19.20;;;;;;;9.87;85.76;100981.04;131303;1251;107159;-74
2023/04/18 05:56:09;;;;;;;29.20;18.10;;;;;;;9.88;85.65;100983.05;131378;1263;107455;-73
2023/04/18 05:59:15;;;;;;;31.10;21.10;;;;;;;9.88;85.70;100982.49;131338;1250;107578;-73
2023/04/18 06:02:20;;;;;;;30.60;21.60;;;;;;;9.91;85.76;100981.25;131354;1253;107499;-72
2023/04/18 06:05:26;;;;;;;27.50;21.40;;;;;;;9.94;85.73;100984.48;131392;1253;107649;-72
2023/04/18 06:08:31;;;;;;;30.30;20.80;;;;;;;9.95;85.40;100984.41;131269;1253;107547;-72
2023/04/18 06:11:37;;;;;;;27.50;20.70;;;;;;;9.94;85.49;100991.23;131346;1252;107518;-74
2023/04/18 06:14:42;;;;;;;26.20;18.60;;;;;;;9.90;85.30;100988.27;131168;1254;107504;-74
2023/04/18 06:17:47;;;;;;;23.40;15.20;;;;;;;9.87;85.43;100991.13;131200;1251;107528;-74
2023/04/18 06:20:53;;;;;;;28.30;19.90;;;;;;;9.86;85.98;100992.33;131343;1252;107564;-73
2023/04/18 06:24:00;;;;;;;29.10;19.30;;;;;;;9.88;85.53;100991.77;131409;1253;107490;-73
2023/04/18 06:27:06;;;;;;;29.10;19.10;;;;;;;9.97;85.50;100992.43;131406;1249;107382;-72
2023/04/18 06:30:13;;;;;;;25.70;19.60;;;;;;;10.04;85.56;100993.23;131418;1251;107534;-72
2023/04/18 06:33:19;;;;;;;28.10;19.00;;;;;;;10.06;85.20;100998.73;131442;1263;109306;-73
2023/04/18 06:36:26;;;;;;;23.90;17.90;;;;;;;10.10;85.24;100998.73;131339;1253;107534;-73
2023/04/18 06:39:31;;;;;;;23.70;17.40;;;;;;;10.15;85.33;100996.05;131380;1251;106028;-73
2023/04/18 06:42:37;;;;;;;24.00;17.40;;;;;;;10.17;85.11;100994.82;131408;1251;107414;-72
2023/04/18 06:45:43;;;;;;;25.60;17.60;;;;;;;10.25;84.85;100991.27;131348;1253;107557;-72
2023/04/18 06:48:49;;;;;;;23.30;18.00;;;;;;;10.36;85.08;100993.19;131292;1251;108616;-72
2023/04/18 06:51:55;;;;;;;26.00;18.20;;;;;;;10.51;85.27;100991.13;131223;1251;107480;-72
2023/04/18 06:55:00;;;;;;;25.00;18.50;;;;;;;10.60;84.65;100990.88;131236;1253;106468;-74
2023/04/18 06:58:07;;;;;;;24.50;17.00;;;;;;;10.68;84.74;100995.34;131226;1260;107225;-72
2023/04/18 07:01:12;;;;;;;22.60;16.20;;;;;;;10.70;84.68;100989.84;131311;1251;108091;-73
2023/04/18 07:04:18;;;;;;;21.50;15.50;;;;;;;10.74;84.29;100997.71;131328;1253;107526;-72
2023/04/18 07:07:25;;;;;;;20.60;15.30;;;;;;;10.80;84.77;100996.84;131220;1251;107277;-72
2023/04/18 07:10:31;;;;;;;19.50;15.10;;;;;;;10.91;84.28;101000.24;131259;1253;107502;-73
2023/04/18 07:13:36;;;;;;;22.50;16.50;;;;;;;11.02;83.98;101001.41;131216;1253;108247;-73
2023/04/18 07:16:42;;;;;;;22.50;15.70;;;;;;;11.17;84.22;100998.48;131273;1251;107521;-73
2023/04/18 07:19:47;;;;;;;20.60;15.40;;;;;;;11.31;83.96;100999.31;131385;1249;108167;-72
2023/04/18 07:22:52;;;;;;;23.10;16.90;;;;;;;11.44;83.37;100997.87;131283;1251;107410;-74
2023/04/18 07:26:00;;;;;;;21.30;15.70;;;;;;;11.44;82.75;100998.22;131379;1253;107270;-73
2023/04/18 07:29:06;;;;;;;22.80;16.40;;;;;;;11.46;83.16;100999.84;131316;1252;107510;-72
2023/04/18 07:32:11;;;;;;;21.10;16.20;;;;;;;11.46;82.90;100998.20;131277;1252;107507;-72
2023/04/18 07:35:17;;;;;;;23.10;15.80;;;;;;;11.49;82.86;101001.07;131438;1253;107565;-72
2023/04/18 07:38:23;;;;;;;22.60;15.30;;;;;;;11.59;83.04;101009.10;131251;1253;106426;-72
2023/04/18 07:41:28;;;;;;;20.70;16.60;;;;;;;11.67;82.95;101005.34;131424;1253;107557;-72
2023/04/18 07:44:36;;;;;;;38.00;23.90;;;;;;;11.73;82.74;101007.25;131502;1251;107340;-72
2023/04/18 07:47:41;;;;;;;26.70;19.50;;;;;;;11.75;82.54;101009.78;131392;1253;107334;-72
2023/04/18 07:50:47;;;;;;;21.40;16.70;;;;;;;11.82;82.70;101005.55;131453;1253;107334;-71
2023/04/18 07:53:52;;;;;;;21.00;15.90;;;;;;;11.94;82.74;101012.48;131373;1253;106531;-73
2023/04/18 07:56:59;;;;;;;20.60;15.40;;;;;;;12.07;82.41;101012.75;131322;1252;107505;-72
2023/04/18 08:00:08;;;;;;;21.90;15.00;;;;;;;12.13;81.41;101010.47;131346;1253;106541;-72
2023/04/18 08:03:18;;;;;;;21.40;15.20;;;;;;;12.21;81.92;101013.39;131345;1251;107446;-72
2023/04/18 08:06:25;;;;;;;22.10;15.00;;;;;;;12.37;82.35;101013.42;131253;1251;107235;-73
2023/04/18 08:09:30;;;;;;;20.40;15.20;;;;;;;12.51;80.63;101016.36;131327;1251;107443;-72
2023/04/18 08:12:36;;;;;;;22.60;17.00;;;;;;;12.48;81.14;101018.39;131573;1251;107491;-73
2023/04/18 08:15:42;;;;;;;21.50;17.10;;;;;;;12.55;81.37;101009.95;131359;1253;106703;-72
2023/04/18 08:18:47;;;;;;;23.20;16.90;;;;;;;12.64;81.31;101006.44;131434;1253;107524;-72
2023/04/18 08:21:53;;;;;;;23.50;17.30;;;;;;;12.80;81.41;101010.21;131413;1253;107537;-72
2023/04/18 08:24:59;;;;;;;25.30;17.30;;;;;;;12.83;79.72;101006.30;131417;1251;107651;-72
2023/04/18 08:28:05;;;;;;;19.50;15.90;;;;;;;12.79;81.03;101010.65;131349;1253;105863;-72
2023/04/18 08:31:15;;;;;;;21.20;14.80;;;;;;;12.87;81.11;101008.95;131164;1253;107215;-72
2023/04/18 08:34:20;;;;;;;20.60;14.90;;;;;;;12.98;80.39;101014.02;131511;1253;107235;-72
2023/04/18 08:37:26;;;;;;;20.20;14.40;;;;;;;13.03;80.39;101014.04;131236;1250;108571;-73
2023/04/18 08:40:32;;;;;;;19.30;14.60;;;;;;;13.12;79.67;101014.09;131344;1252;107534;-73
2023/04/18 08:43:38;;;;;;;20.40;14.30;;;;;;;13.19;80.09;101014.28;131475;1254;107402;-73
2023/04/18 08:46:45;;;;;;;22.80;16.00;;;;;;;13.24;79.09;101010.57;131496;1251;107519;-72
2023/04/18 08:49:52;;;;;;;21.10;15.60;;;;;;;13.25;79.33;101012.02;131518;1253;107535;-72
2023/04/18 08:52:58;;;;;;;28.70;18.70;;;;;;;13.42;80.00;101013.46;131287;1254;108152;-72
2023/04/18 08:56:04;;;;;;;21.60;15.40;;;;;;;13.60;78.90;101013.80;131288;1252;107543;-72
2023/04/18 08:59:10;;;;;;;20.00;14.90;;;;;;;13.65;78.48;101009.84;131307;1251;106267;-72
2023/04/18 09:02:16;;;;;;;19.60;14.70;;;;;;;13.61;78.03;101004.24;131224;1253;107197;-72
2023/04/18 09:05:24;;;;;;;19.10;14.40;;;;;;;13.50;77.32;101002.95;131479;1253;107473;-73
2023/04/18 09:08:29;;;;;;;18.70;14.30;;;;;;;13.44;78.15;101003.13;131412;1253;107333;-72
2023/04/18 09:11:35;;;;;;;17.40;14.00;;;;;;;13.52;78.40;100999.98;131445;1253;107419;-73
2023/04/18 09:14:44;;;;;;;18.20;13.30;;;;;;;13.58;77.40;101000.09;131378;1253;107661;-73
2023/04/18 09:17:52;;;;;;;19.50;14.70;;;;;;;13.59;78.21;100995.72;131510;1253;107305;-72
2023/04/18 09:21:16;;;;;;;18.80;14.30;;;;;;;13.68;77.98;100996.30;131465;1253;107536;-72
2023/04/18 09:24:25;;;;;;;17.80;14.20;;;;;;;13.76;77.77;100996.23;131499;1253;108121;-72
2023/04/18 09:27:36;;;;;;;17.30;13.40;;;;;;;13.84;77.64;100998.45;131299;1253;107424;-73
2023/04/18 09:30:42;;;;;;;19.50;13.90;;;;;;;13.90;76.65;100999.83;131400;1253;107194;-72
2023/04/18 09:33:55;;;;;;;18.30;14.70;;;;;;;13.87;76.38;101000.00;131390;1252;107521;-72
2023/04/18 09:37:12;;;;;;;19.30;14.20;;;;;;;13.93;76.81;101001.75;131461;1262;107232;-72
2023/04/18 09:40:20;;;;;;;16.40;13.10;;;;;;;14.04;76.34;100997.86;131449;1253;109274;-72
2023/04/18 09:43:25;;;;;;;16.40;13.00;;;;;;;14.17;76.71;101001.75;131265;1253;107325;-72
2023/04/18 09:46:31;;;;;;;17.50;13.00;;;;;;;14.32;76.40;100999.18;131213;1251;107239;-72
2023/04/18 09:49:37;;;;;;;18.40;13.00;;;;;;;14.43;75.60;101004.95;131316;1254;107249;-73
2023/04/18 09:52:44;;;;;;;16.40;13.40;;;;;;;14.45;75.04;100998.45;131221;1253;107522;-72
2023/04/18 09:55:52;;;;;;;17.10;14.20;;;;;;;14.53;74.83;100993.73;131134;1253;222373;-72
2023/04/18 09:59:03;;;;;;;16.00;13.60;;;;;;;14.56;75.09;100998.64;131277;1252;107655;-72
2023/04/18 10:02:15;;;;;;;17.20;14.00;;;;;;;14.61;74.09;100992.61;131293;1254;107402;-72
2023/04/18 10:05:24;;;;;;;18.60;14.20;;;;;;;14.49;73.36;100992.84;131292;1253;107356;-72
2023/04/18 10:08:30;;;;;;;17.40;13.10;;;;;;;14.54;74.51;100995.44;131505;1253;107568;-73
2023/04/18 10:11:36;;;;;;;15.80;13.00;;;;;;;14.73;74.06;100995.79;133002;1251;107479;-73
2023/04/18 10:14:43;;;;;;;16.30;13.50;;;;;;;14.91;73.04;100991.88;131299;1253;107578;-72
2023/04/18 10:17:54;;;;;;;14.90;12.20;;;;;;;15.08;73.45;100989.38;131482;1253;107496;-72
2023/04/18 10:21:04;;;;;;;15.90;13.20;;;;;;;15.25;73.40;100987.39;131375;1253;107516;-72
2023/04/18 10:24:51;;;;;;;16.60;13.30;;;;;;;15.30;72.75;100988.02;131350;1254;106097;-72
2023/04/18 10:28:01;;;;;;;15.70;12.40;;;;;;;15.35;73.43;100989.18;131213;1253;107250;-72
2023/04/18 10:31:07;;;;;;;16.90;13.40;;;;;;;15.40;72.72;100988.52;131276;1253;107839;-72
2023/04/18 10:34:16;;;;;;;16.10;13.00;;;;;;;15.39;72.35;100987.70;131330;1253;107497;-72
2023/04/18 10:37:22;;;;;;;15.00;12.50;;;;;;;15.40;72.37;100985.09;131391;1253;107410;-73
2023/04/18 10:40:35;;;;;;;14.60;12.40;;;;;;;15.30;71.10;100983.80;131317;1254;107620;-72
2023/04/18 10:44:14;;;;;;;16.20;12.80;;;;;;;15.29;71.46;100980.23;131210;1253;107439;-73
2023/04/18 10:47:23;;;;;;;15.00;12.70;;;;;;;15.18;70.67;100971.11;131306;1253;107347;-72
2023/04/18 10:50:28;;;;;;;14.40;12.60;;;;;;;15.21;72.25;100974.41;131349;1253;107607;-72
2023/04/18 10:53:33;;;;;;;13.50;12.00;;;;;;;15.34;72.49;100968.54;131242;1252;107491;-72
2023/04/18 10:56:39;;;;;;;14.30;11.80;;;;;;;15.44;71.40;100969.96;131219;1254;107527;-72
2023/04/18 10:59:53;;;;;;;14.40;12.10;;;;;;;15.47;71.60;100969.52;131338;1260;107369;-72
2023/04/18 11:02:59;;;;;;;13.10;11.40;;;;;;;15.52;71.28;100968.32;131314;1253;105613;-72
2023/04/18 11:06:05;;;;;;;14.20;11.50;;;;;;;15.57;71.12;100969.02;131410;1252;106906;-72
2023/04/18 11:09:12;;;;;;;14.50;12.40;;;;;;;15.57;70.74;100966.46;131251;1253;107339;-72
2023/04/18 11:12:18;;;;;;;16.20;11.60;;;;;;;15.64;70.26;100965.25;131356;1254;107561;-72
2023/04/18 11:15:24;;;;;;;15.80;11.90;;;;;;;15.69;70.25;100958.73;131416;1254;107180;-72
2023/04/18 11:18:41;;;;;;;13.10;11.40;;;;;;;15.79;70.35;100950.90;131172;1251;107244;-72
2023/04/18 11:21:46;;;;;;;15.40;12.00;;;;;;;15.91;70.28;100946.45;131290;1252;106696;-72
2023/04/18 11:24:52;;;;;;;14.80;11.80;;;;;;;16.01;70.05;100945.48;131239;1252;107551;-72
2023/04/18 11:28:00;;;;;;;14.40;12.50;;;;;;;16.09;69.71;100942.65;131259;1253;105951;-72
2023/04/18 11:31:07;;;;;;;13.60;11.60;;;;;;;16.13;69.25;100935.23;131256;1251;107379;-72
2023/04/18 11:34:14;;;;;;;13.80;11.10;;;;;;;16.18;68.69;100934.30;131293;1252;107258;-72
2023/04/18 11:37:19;;;;;;;14.20;11.60;;;;;;;16.26;69.10;100926.02;131187;1253;107638;-72
2023/04/18 11:40:25;;;;;;;14.40;12.40;;;;;;;16.35;67.78;100924.28;131249;1250;107537;-74
2023/04/18 11:43:30;;;;;;;14.00;12.10;;;;;;;16.26;68.02;100923.75;131311;1252;107476;-73
2023/04/18 11:46:40;;;;;;;14.50;12.40;;;;;;;16.16;68.90;100920.42;131239;1253;106538;-72
2023/04/18 11:49:46;;;;;;;15.40;12.80;;;;;;;16.05;66.45;100928.75;131533;1253;107506;-73
2023/04/18 11:52:53;;;;;;;12.40;11.10;;;;;;;15.89;66.57;100927.85;131267;1253;108062;-73
2023/04/18 11:55:58;;;;;;;15.90;12.10;;;;;;;15.85;67.11;100926.72;131227;1254;107508;-72
2023/04/18 11:59:10;;;;;;;14.80;11.70;;;;;;;15.89;67.11;100922.27;131143;1252;107439;-72
2023/04/18 12:02:14;;;;;;;;;;;;;;;15.94;66.74;100915.63;131373;1252;107567;-72
2023/04/18 12:05:37;;;;;;;16.20;12.80;;;;;;;15.99;65.80;100914.84;131349;1254;107508;-73
2023/04/18 12:08:44;;;;;;;16.90;12.50;;;;;;;16.06;66.54;100910.17;131384;1251;107469;-72
2023/04/18 12:12:00;;;;;;;15.30;11.50;;;;;;;16.07;65.41;100907.64;131414;1251;107531;-73
2023/04/18 12:15:14;;;;;;;14.20;12.00;;;;;;;16.12;66.16;100902.48;131454;1252;107210;-72
2023/04/18 12:18:20;;;;;;;13.80;11.00;;;;;;;16.24;67.20;100898.61;131387;1251;107308;-72
2023/04/18 12:21:28;;;;;;;15.10;12.40;;;;;;;16.37;65.74;100899.70;131425;1254;107610;-72
2023/04/18 12:24:34;;;;;;;16.50;12.20;;;;;;;16.46;65.52;100896.66;131212;1254;107248;-72
2023/04/18 12:27:57;;;;;;;16.50;12.70;;;;;;;16.47;65.34;100894.88;131266;1254;107347;-72
2023/04/18 12:31:06;;;;;;;14.60;12.10;;;;;;;16.41;64.70;100889.48;131349;1254;107344;-73
2023/04/18 12:34:11;;;;;;;15.40;12.00;;;;;;;16.44;66.14;100889.66;131466;1257;107233;-72
2023/04/18 12:37:17;;;;;;;16.20;12.60;;;;;;;16.49;65.28;100884.07;131287;1253;107030;-71
2023/04/18 12:40:25;;;;;;;15.60;12.90;;;;;;;16.47;65.36;100881.08;131201;1253;107560;-75
2023/04/18 12:43:30;;;;;;;15.50;12.70;;;;;;;16.48;65.07;100879.38;131225;1251;107527;-73
2023/04/18 12:46:35;;;;;;;14.40;12.10;;;;;;;16.52;65.28;100875.84;131366;1252;108087;-72
2023/04/18 12:49:41;;;;;;;16.00;12.10;;;;;;;16.57;64.50;100874.65;131289;1263;106516;-72
2023/04/18 12:52:47;;;;;;;14.10;11.60;;;;;;;16.58;64.90;100876.41;131515;1261;106059;-72
2023/04/18 12:55:52;;;;;;;14.20;12.30;;;;;;;16.54;64.70;100871.49;131300;1253;107540;-72
2023/04/18 12:58:58;;;;;;;16.10;13.50;;;;;;;16.36;63.75;100873.41;131395;1253;108073;-72
2023/04/18 13:02:04;;;;;;;14.60;12.00;;;;;;;16.16;64.10;100876.23;131424;1253;107373;-72
2023/04/18 13:05:11;;;;;;;12.50;11.10;;;;;;;15.94;64.40;100875.42;131484;1252;105639;-72
2023/04/18 13:08:17;;;;;;;14.20;11.20;;;;;;;15.81;64.63;100875.33;131269;1252;107557;-72
2023/04/18 13:11:27;;;;;;;13.60;11.50;;;;;;;15.64;64.14;100871.20;131496;1254;107549;-72
2023/04/18 13:14:32;;;;;;;12.80;10.90;;;;;;;15.48;64.46;100869.04;131465;1253;106954;-72
2023/04/18 13:17:39;;;;;;;12.70;11.10;;;;;;;15.38;64.69;100870.77;131222;1261;108102;-72
2023/04/18 13:20:44;;;;;;;15.10;12.10;;;;;;;15.29;64.78;100866.51;131286;1251;107435;-72
2023/04/18 13:23:50;;;;;;;15.00;11.00;;;;;;;15.23;64.80;100871.48;131234;1251;107538;-72
2023/04/18 13:26:56;;;;;;;12.70;11.20;;;;;;;15.17;64.63;100867.31;131417;1261;107523;-72
2023/04/18 13:30:02;;;;;;;13.90;11.10;;;;;;;15.15;65.23;100865.03;131197;1261;107523;-72
2023/04/18 13:33:09;;;;;;;16.20;11.50;;;;;;;15.15;65.03;100864.67;131246;1253;107298;-72
2023/04/18 13:36:14;;;;;;;13.50;10.20;;;;;;;15.14;65.16;100862.94;131313;1253;106060;-71
2023/04/18 13:39:20;;;;;;;14.10;10.80;;;;;;;15.11;64.92;100867.41;131406;1261;107497;-72
2023/04/18 13:42:25;;;;;;;14.90;11.30;;;;;;;15.08;64.91;100866.48;131372;1253;108668;-72
2023/04/18 13:45:31;;;;;;;11.90;10.50;;;;;;;15.04;64.90;100861.30;131220;1252;107427;-72
2023/04/18 13:48:36;;;;;;;12.20;9.90;;;;;;;15.07;65.28;100858.68;131440;1253;107708;-73
2023/04/18 13:51:42;;;;;;;11.80;9.90;;;;;;;15.14;65.02;100858.81;131458;1254;107534;-73
2023/04/18 13:54:48;;;;;;;12.10;9.40;;;;;;;15.15;64.69;100858.89;131373;1253;107491;-72
2023/04/18 13:57:53;;;;;;;11.90;9.60;;;;;;;15.11;63.92;100857.88;131333;1253;107282;-73